KDBN

Details ICAO KDBN
Name W H BUD BARRON
Region United States
Timezone America/New_York (UTC-4.0)
Plans Departing 10
Arriving 6
Stats Elevation 309 ft / 94 m (AMSL)
Location 32.564324° -82.985574°
Runways 2
Magnetic Variation 5.955° W
Sunrise 2018-05-22 10:30:42 UTC / 2018-05-22 06:30:42 Local
Sunset 2018-05-23 00:29:25 UTC / 2018-05-22 20:29:25 Local
Advertisement - Login to hide

Runways

ID Width Length Bearing (true) Bearing (mag) Surface Threshold Offset Overrun Length
02 150 ft / 46 m 6,018 ft / 1,834 m 16.23° 22.19° Asphalt 0 ft / 0 m 0 ft / 0 m
14 150 ft / 46 m 5,006 ft / 1,526 m 136.47° 142.43° Asphalt 591 ft / 180 m 0 ft / 0 m
20 150 ft / 46 m 6,018 ft / 1,834 m 196.24° 202.20° Asphalt 0 ft / 0 m 0 ft / 0 m
32 150 ft / 46 m 5,006 ft / 1,526 m 316.48° 322.44° Asphalt 0 ft / 0 m 0 ft / 0 m

Map

Weather


0- 5 10 15 20 25 30 35+ Temperature / ° C

Clouds and Precipitation
Forecast for 2018-05-23 00:00 UTC. Updated 3 hours ago

Ground ~20,000 ft ~40,000 ft Winds

METAR

KDBN 230230Z AUTO 19005KT 2SM +RA SCT003 BKN020 OVC035 21/20 A3013 RMK AO2 LTG DSNT SE S AND NW

TAF

Not found

Frequencies

Recorded 118.42 MHz AWOS 3
Approach 119.60 MHz ATLANTA APP/DEP
Unicom 122.70 MHz CTAF/UNICOM
Approach 124.20 MHz ATLANTA APP/DEP
Warning: Do not use this data for real-world aviation or navigation. No guarantee of current accuracy is given.